sensor_id;sensor_type;location;lat;lon;timestamp;P1;durP1;ratioP1;P2;durP2;ratioP2
46777;SDS011;32536;47.128;8.746;2022-07-29T00:00:58;1.95;;;0.95;;
46777;SDS011;32536;47.128;8.746;2022-07-29T00:03:25;2.75;;;1.38;;
46777;SDS011;32536;47.128;8.746;2022-07-29T00:05:52;3.58;;;1.17;;
46777;SDS011;32536;47.128;8.746;2022-07-29T00:08:18;2.40;;;1.02;;
46777;SDS011;32536;47.128;8.746;2022-07-29T00:10:46;2.78;;;1.42;;
46777;SDS011;32536;47.128;8.746;2022-07-29T00:13:13;1.27;;;0.65;;
46777;SDS011;32536;47.128;8.746;2022-07-29T00:15:40;2.17;;;1.00;;
46777;SDS011;32536;47.128;8.746;2022-07-29T00:18:07;2.22;;;0.82;;
46777;SDS011;32536;47.128;8.746;2022-07-29T00:20:33;1.80;;;0.80;;
46777;SDS011;32536;47.128;8.746;2022-07-29T00:23:00;2.30;;;1.13;;
46777;SDS011;32536;47.128;8.746;2022-07-29T00:25:28;2.40;;;1.48;;
46777;SDS011;32536;47.128;8.746;2022-07-29T00:27:55;2.38;;;1.20;;
46777;SDS011;32536;47.128;8.746;2022-07-29T00:30:22;2.28;;;1.08;;
46777;SDS011;32536;47.128;8.746;2022-07-29T00:32:49;2.13;;;0.80;;
46777;SDS011;32536;47.128;8.746;2022-07-29T00:35:15;2.42;;;1.58;;
46777;SDS011;32536;47.128;8.746;2022-07-29T00:38:00;2.55;;;1.40;;
46777;SDS011;32536;47.128;8.746;2022-07-29T00:40:27;2.40;;;1.17;;
46777;SDS011;32536;47.128;8.746;2022-07-29T00:42:54;1.90;;;0.88;;
46777;SDS011;32536;47.128;8.746;2022-07-29T00:45:21;1.70;;;0.80;;
46777;SDS011;32536;47.128;8.746;2022-07-29T00:47:48;2.33;;;1.00;;
46777;SDS011;32536;47.128;8.746;2022-07-29T00:50:15;1.73;;;0.88;;
46777;SDS011;32536;47.128;8.746;2022-07-29T00:52:42;1.90;;;1.13;;
46777;SDS011;32536;47.128;8.746;2022-07-29T00:55:13;1.10;;;0.68;;
46777;SDS011;32536;47.128;8.746;2022-07-29T00:57:42;1.25;;;0.57;;
46777;SDS011;32536;47.128;8.746;2022-07-29T01:00:11;1.13;;;0.68;;
46777;SDS011;32536;47.128;8.746;2022-07-29T01:02:43;1.92;;;0.88;;
46777;SDS011;32536;47.128;8.746;2022-07-29T01:05:12;1.33;;;0.57;;
46777;SDS011;32536;47.128;8.746;2022-07-29T01:07:42;2.08;;;0.82;;
46777;SDS011;32536;47.128;8.746;2022-07-29T01:10:09;1.23;;;0.70;;
46777;SDS011;32536;47.128;8.746;2022-07-29T01:12:39;1.75;;;1.02;;
46777;SDS011;32536;47.128;8.746;2022-07-29T01:15:07;1.10;;;0.60;;
46777;SDS011;32536;47.128;8.746;2022-07-29T01:17:42;2.40;;;1.23;;
46777;SDS011;32536;47.128;8.746;2022-07-29T01:29:33;1.88;;;0.70;;
46777;SDS011;32536;47.128;8.746;2022-07-29T01:32:11;2.13;;;1.08;;
46777;SDS011;32536;47.128;8.746;2022-07-29T01:34:43;2.63;;;1.13;;
46777;SDS011;32536;47.128;8.746;2022-07-29T01:43:03;1.60;;;0.85;;
46777;SDS011;32536;47.128;8.746;2022-07-29T01:45:40;1.73;;;0.63;;
46777;SDS011;32536;47.128;8.746;2022-07-29T01:51:04;1.40;;;0.80;;
46777;SDS011;32536;47.128;8.746;2022-07-29T01:57:09;1.23;;;0.73;;
46777;SDS011;32536;47.128;8.746;2022-07-29T01:59:40;1.98;;;0.93;;
46777;SDS011;32536;47.128;8.746;2022-07-29T02:02:09;1.27;;;0.73;;
46777;SDS011;32536;47.128;8.746;2022-07-29T02:04:40;1.95;;;1.13;;
46777;SDS011;32536;47.128;8.746;2022-07-29T02:07:10;2.25;;;1.08;;
46777;SDS011;32536;47.128;8.746;2022-07-29T02:09:43;1.48;;;0.75;;
46777;SDS011;32536;47.128;8.746;2022-07-29T02:12:14;1.33;;;0.80;;
46777;SDS011;32536;47.128;8.746;2022-07-29T02:14:44;1.50;;;1.08;;
46777;SDS011;32536;47.128;8.746;2022-07-29T02:17:16;1.88;;;0.98;;
46777;SDS011;32536;47.128;8.746;2022-07-29T02:20:05;2.08;;;1.20;;
46777;SDS011;32536;47.128;8.746;2022-07-29T02:22:35;2.22;;;1.02;;
46777;SDS011;32536;47.128;8.746;2022-07-29T02:25:05;2.42;;;1.35;;
46777;SDS011;32536;47.128;8.746;2022-07-29T02:27:34;2.08;;;0.98;;
46777;SDS011;32536;47.128;8.746;2022-07-29T02:30:04;2.00;;;0.75;;
46777;SDS011;32536;47.128;8.746;2022-07-29T02:32:34;1.30;;;0.63;;
46777;SDS011;32536;47.128;8.746;2022-07-29T02:35:04;1.60;;;0.90;;
46777;SDS011;32536;47.128;8.746;2022-07-29T02:37:33;2.03;;;1.10;;
46777;SDS011;32536;47.128;8.746;2022-07-29T02:40:03;2.65;;;1.17;;
46777;SDS011;32536;47.128;8.746;2022-07-29T02:42:31;2.65;;;1.20;;
46777;SDS011;32536;47.128;8.746;2022-07-29T02:45:00;2.58;;;1.30;;
46777;SDS011;32536;47.128;8.746;2022-07-29T02:47:37;2.22;;;0.90;;
46777;SDS011;32536;47.128;8.746;2022-07-29T02:50:13;1.77;;;0.88;;
46777;SDS011;32536;47.128;8.746;2022-07-29T02:52:55;2.00;;;0.93;;
46777;SDS011;32536;47.128;8.746;2022-07-29T02:55:45;2.25;;;1.00;;
46777;SDS011;32536;47.128;8.746;2022-07-29T02:58:27;1.70;;;0.85;;
46777;SDS011;32536;47.128;8.746;2022-07-29T03:00:59;1.55;;;0.85;;
46777;SDS011;32536;47.128;8.746;2022-07-29T03:03:32;1.92;;;1.05;;
46777;SDS011;32536;47.128;8.746;2022-07-29T03:06:03;2.28;;;1.15;;
46777;SDS011;32536;47.128;8.746;2022-07-29T03:08:31;1.92;;;1.10;;
46777;SDS011;32536;47.128;8.746;2022-07-29T03:10:59;1.80;;;0.98;;
46777;SDS011;32536;47.128;8.746;2022-07-29T03:13:27;2.95;;;1.15;;
46777;SDS011;32536;47.128;8.746;2022-07-29T03:15:56;2.22;;;1.20;;
46777;SDS011;32536;47.128;8.746;2022-07-29T03:18:24;2.30;;;0.85;;
46777;SDS011;32536;47.128;8.746;2022-07-29T03:20:51;2.85;;;1.33;;
46777;SDS011;32536;47.128;8.746;2022-07-29T03:23:19;2.33;;;1.10;;
46777;SDS011;32536;47.128;8.746;2022-07-29T03:25:48;2.85;;;1.52;;
46777;SDS011;32536;47.128;8.746;2022-07-29T03:28:16;2.38;;;1.30;;
46777;SDS011;32536;47.128;8.746;2022-07-29T03:30:43;3.22;;;1.55;;
46777;SDS011;32536;47.128;8.746;2022-07-29T03:33:10;2.83;;;1.25;;
46777;SDS011;32536;47.128;8.746;2022-07-29T03:35:37;2.83;;;1.38;;
46777;SDS011;32536;47.128;8.746;2022-07-29T03:38:04;2.38;;;1.30;;
46777;SDS011;32536;47.128;8.746;2022-07-29T03:40:35;2.05;;;1.08;;
46777;SDS011;32536;47.128;8.746;2022-07-29T03:43:33;2.65;;;1.50;;
46777;SDS011;32536;47.128;8.746;2022-07-29T03:46:06;2.75;;;0.93;;
46777;SDS011;32536;47.128;8.746;2022-07-29T03:48:37;2.13;;;0.95;;
46777;SDS011;32536;47.128;8.746;2022-07-29T03:51:10;2.13;;;0.90;;
46777;SDS011;32536;47.128;8.746;2022-07-29T03:53:37;2.05;;;0.95;;
46777;SDS011;32536;47.128;8.746;2022-07-29T03:56:04;1.67;;;0.95;;
46777;SDS011;32536;47.128;8.746;2022-07-29T03:58:33;2.00;;;1.25;;
46777;SDS011;32536;47.128;8.746;2022-07-29T04:01:00;1.02;;;0.57;;
46777;SDS011;32536;47.128;8.746;2022-07-29T04:03:28;1.98;;;0.95;;
46777;SDS011;32536;47.128;8.746;2022-07-29T04:06:01;1.80;;;1.05;;
46777;SDS011;32536;47.128;8.746;2022-07-29T04:08:32;1.67;;;0.95;;
46777;SDS011;32536;47.128;8.746;2022-07-29T04:11:00;2.25;;;1.00;;
46777;SDS011;32536;47.128;8.746;2022-07-29T04:13:28;3.95;;;1.33;;
46777;SDS011;32536;47.128;8.746;2022-07-29T04:15:55;2.83;;;1.65;;
46777;SDS011;32536;47.128;8.746;2022-07-29T04:18:22;3.17;;;1.40;;
46777;SDS011;32536;47.128;8.746;2022-07-29T04:20:49;2.85;;;1.42;;
46777;SDS011;32536;47.128;8.746;2022-07-29T04:23:16;2.17;;;0.95;;
46777;SDS011;32536;47.128;8.746;2022-07-29T04:25:43;4.60;;;1.55;;
46777;SDS011;32536;47.128;8.746;2022-07-29T04:28:10;3.08;;;1.25;;
46777;SDS011;32536;47.128;8.746;2022-07-29T04:30:37;2.50;;;1.10;;
46777;SDS011;32536;47.128;8.746;2022-07-29T04:33:05;2.38;;;0.95;;
46777;SDS011;32536;47.128;8.746;2022-07-29T04:35:34;1.83;;;0.93;;
46777;SDS011;32536;47.128;8.746;2022-07-29T04:38:03;2.10;;;0.70;;
46777;SDS011;32536;47.128;8.746;2022-07-29T04:40:31;1.52;;;0.85;;
46777;SDS011;32536;47.128;8.746;2022-07-29T04:42:59;2.13;;;1.15;;
46777;SDS011;32536;47.128;8.746;2022-07-29T04:45:27;2.38;;;1.02;;
46777;SDS011;32536;47.128;8.746;2022-07-29T04:47:54;2.08;;;1.38;;
46777;SDS011;32536;47.128;8.746;2022-07-29T04:50:22;2.38;;;0.95;;
46777;SDS011;32536;47.128;8.746;2022-07-29T04:52:49;2.20;;;1.17;;
46777;SDS011;32536;47.128;8.746;2022-07-29T04:55:16;2.83;;;1.33;;
46777;SDS011;32536;47.128;8.746;2022-07-29T04:57:43;3.40;;;1.48;;
46777;SDS011;32536;47.128;8.746;2022-07-29T05:00:09;2.88;;;1.38;;
46777;SDS011;32536;47.128;8.746;2022-07-29T05:02:37;2.63;;;1.13;;
46777;SDS011;32536;47.128;8.746;2022-07-29T05:05:04;3.42;;;1.20;;
46777;SDS011;32536;47.128;8.746;2022-07-29T05:07:32;4.57;;;1.25;;
46777;SDS011;32536;47.128;8.746;2022-07-29T05:09:59;3.78;;;1.67;;
46777;SDS011;32536;47.128;8.746;2022-07-29T05:12:26;4.13;;;1.63;;
46777;SDS011;32536;47.128;8.746;2022-07-29T05:14:53;3.08;;;1.40;;
46777;SDS011;32536;47.128;8.746;2022-07-29T05:17:20;3.65;;;1.80;;
46777;SDS011;32536;47.128;8.746;2022-07-29T05:19:47;3.25;;;2.10;;
46777;SDS011;32536;47.128;8.746;2022-07-29T05:22:16;2.92;;;1.23;;
46777;SDS011;32536;47.128;8.746;2022-07-29T05:24:44;3.00;;;1.73;;
46777;SDS011;32536;47.128;8.746;2022-07-29T05:27:11;4.55;;;2.50;;
46777;SDS011;32536;47.128;8.746;2022-07-29T05:29:38;3.22;;;1.67;;
46777;SDS011;32536;47.128;8.746;2022-07-29T05:32:05;2.83;;;1.40;;
46777;SDS011;32536;47.128;8.746;2022-07-29T05:34:32;3.05;;;1.17;;
46777;SDS011;32536;47.128;8.746;2022-07-29T05:36:59;1.85;;;0.82;;
46777;SDS011;32536;47.128;8.746;2022-07-29T05:39:26;1.98;;;0.90;;
46777;SDS011;32536;47.128;8.746;2022-07-29T05:41:53;2.25;;;1.33;;
46777;SDS011;32536;47.128;8.746;2022-07-29T05:44:19;4.07;;;1.50;;
46777;SDS011;32536;47.128;8.746;2022-07-29T05:46:46;2.40;;;1.15;;
46777;SDS011;32536;47.128;8.746;2022-07-29T05:49:13;2.28;;;1.23;;
46777;SDS011;32536;47.128;8.746;2022-07-29T05:51:40;2.50;;;1.30;;
46777;SDS011;32536;47.128;8.746;2022-07-29T05:54:07;2.28;;;0.82;;
46777;SDS011;32536;47.128;8.746;2022-07-29T05:56:35;2.40;;;1.15;;
46777;SDS011;32536;47.128;8.746;2022-07-29T05:59:02;2.65;;;1.25;;
46777;SDS011;32536;47.128;8.746;2022-07-29T06:01:29;2.17;;;1.02;;
46777;SDS011;32536;47.128;8.746;2022-07-29T06:03:57;2.40;;;1.15;;
46777;SDS011;32536;47.128;8.746;2022-07-29T06:06:23;3.55;;;1.23;;
46777;SDS011;32536;47.128;8.746;2022-07-29T06:08:50;1.95;;;1.05;;
46777;SDS011;32536;47.128;8.746;2022-07-29T06:11:17;2.00;;;0.93;;
46777;SDS011;32536;47.128;8.746;2022-07-29T06:13:44;2.45;;;1.17;;
46777;SDS011;32536;47.128;8.746;2022-07-29T06:16:11;2.40;;;1.08;;
46777;SDS011;32536;47.128;8.746;2022-07-29T06:18:37;2.55;;;1.25;;
46777;SDS011;32536;47.128;8.746;2022-07-29T06:21:08;2.95;;;1.40;;
46777;SDS011;32536;47.128;8.746;2022-07-29T06:23:36;2.72;;;1.75;;
46777;SDS011;32536;47.128;8.746;2022-07-29T06:26:04;2.55;;;0.88;;
46777;SDS011;32536;47.128;8.746;2022-07-29T06:28:32;1.63;;;0.95;;
46777;SDS011;32536;47.128;8.746;2022-07-29T06:30:59;1.67;;;0.77;;
46777;SDS011;32536;47.128;8.746;2022-07-29T06:33:26;1.90;;;0.88;;
46777;SDS011;32536;47.128;8.746;2022-07-29T06:35:52;3.45;;;0.95;;
46777;SDS011;32536;47.128;8.746;2022-07-29T06:38:20;1.80;;;0.95;;
46777;SDS011;32536;47.128;8.746;2022-07-29T06:40:47;2.78;;;1.73;;
46777;SDS011;32536;47.128;8.746;2022-07-29T06:43:35;2.35;;;1.30;;
46777;SDS011;32536;47.128;8.746;2022-07-29T06:46:11;1.75;;;0.80;;
46777;SDS011;32536;47.128;8.746;2022-07-29T06:48:41;2.40;;;1.30;;
46777;SDS011;32536;47.128;8.746;2022-07-29T06:51:09;1.80;;;0.77;;
46777;SDS011;32536;47.128;8.746;2022-07-29T06:53:37;2.28;;;1.05;;
46777;SDS011;32536;47.128;8.746;2022-07-29T06:56:05;3.13;;;0.98;;
46777;SDS011;32536;47.128;8.746;2022-07-29T06:58:38;1.75;;;0.77;;
46777;SDS011;32536;47.128;8.746;2022-07-29T07:01:05;3.03;;;1.40;;
46777;SDS011;32536;47.128;8.746;2022-07-29T07:03:33;2.80;;;1.42;;
46777;SDS011;32536;47.128;8.746;2022-07-29T07:06:00;1.65;;;0.77;;
46777;SDS011;32536;47.128;8.746;2022-07-29T07:08:27;1.52;;;0.77;;
46777;SDS011;32536;47.128;8.746;2022-07-29T07:10:54;1.95;;;1.13;;
46777;SDS011;32536;47.128;8.746;2022-07-29T07:13:22;2.45;;;1.00;;
46777;SDS011;32536;47.128;8.746;2022-07-29T07:15:49;2.85;;;1.42;;
46777;SDS011;32536;47.128;8.746;2022-07-29T07:18:17;2.58;;;1.13;;
46777;SDS011;32536;47.128;8.746;2022-07-29T07:20:44;1.98;;;1.00;;
46777;SDS011;32536;47.128;8.746;2022-07-29T07:23:12;2.63;;;0.98;;
46777;SDS011;32536;47.128;8.746;2022-07-29T07:25:38;2.47;;;1.08;;
46777;SDS011;32536;47.128;8.746;2022-07-29T07:28:05;1.88;;;1.05;;
46777;SDS011;32536;47.128;8.746;2022-07-29T07:30:32;1.77;;;0.70;;
46777;SDS011;32536;47.128;8.746;2022-07-29T07:32:59;2.40;;;1.15;;
46777;SDS011;32536;47.128;8.746;2022-07-29T07:35:26;3.30;;;1.17;;
46777;SDS011;32536;47.128;8.746;2022-07-29T07:37:54;1.75;;;0.70;;
46777;SDS011;32536;47.128;8.746;2022-07-29T07:40:22;1.67;;;0.70;;
46777;SDS011;32536;47.128;8.746;2022-07-29T07:42:49;2.33;;;1.08;;
46777;SDS011;32536;47.128;8.746;2022-07-29T07:45:17;2.17;;;0.90;;
46777;SDS011;32536;47.128;8.746;2022-07-29T07:47:44;1.42;;;0.93;;
46777;SDS011;32536;47.128;8.746;2022-07-29T07:50:12;1.60;;;0.80;;
46777;SDS011;32536;47.128;8.746;2022-07-29T07:52:49;2.25;;;0.90;;
46777;SDS011;32536;47.128;8.746;2022-07-29T07:55:23;1.95;;;1.15;;
46777;SDS011;32536;47.128;8.746;2022-07-29T07:57:51;2.10;;;0.80;;
46777;SDS011;32536;47.128;8.746;2022-07-29T08:00:18;2.22;;;0.65;;
46777;SDS011;32536;47.128;8.746;2022-07-29T08:02:45;1.75;;;0.68;;
46777;SDS011;32536;47.128;8.746;2022-07-29T08:05:12;1.73;;;0.95;;
46777;SDS011;32536;47.128;8.746;2022-07-29T08:07:43;1.60;;;0.70;;
46777;SDS011;32536;47.128;8.746;2022-07-29T08:10:13;1.88;;;0.95;;
46777;SDS011;32536;47.128;8.746;2022-07-29T08:13:02;1.55;;;0.75;;
46777;SDS011;32536;47.128;8.746;2022-07-29T08:15:38;1.40;;;0.70;;
46777;SDS011;32536;47.128;8.746;2022-07-29T08:18:10;1.25;;;0.60;;
46777;SDS011;32536;47.128;8.746;2022-07-29T08:20:38;1.40;;;0.73;;
46777;SDS011;32536;47.128;8.746;2022-07-29T08:23:07;2.63;;;0.82;;
46777;SDS011;32536;47.128;8.746;2022-07-29T08:25:37;1.92;;;0.80;;
46777;SDS011;32536;47.128;8.746;2022-07-29T08:28:04;2.65;;;0.68;;
46777;SDS011;32536;47.128;8.746;2022-07-29T08:30:31;1.95;;;1.10;;
46777;SDS011;32536;47.128;8.746;2022-07-29T08:32:59;1.55;;;0.80;;
46777;SDS011;32536;47.128;8.746;2022-07-29T08:35:26;1.75;;;0.90;;
46777;SDS011;32536;47.128;8.746;2022-07-29T08:37:54;2.05;;;1.08;;
46777;SDS011;32536;47.128;8.746;2022-07-29T08:40:22;2.10;;;0.80;;
46777;SDS011;32536;47.128;8.746;2022-07-29T08:42:50;2.13;;;0.95;;
46777;SDS011;32536;47.128;8.746;2022-07-29T08:45:17;2.22;;;0.90;;
46777;SDS011;32536;47.128;8.746;2022-07-29T08:47:44;3.47;;;1.00;;
46777;SDS011;32536;47.128;8.746;2022-07-29T08:50:11;2.33;;;1.25;;
46777;SDS011;32536;47.128;8.746;2022-07-29T08:52:40;1.95;;;0.88;;
46777;SDS011;32536;47.128;8.746;2022-07-29T08:55:08;1.67;;;0.88;;
46777;SDS011;32536;47.128;8.746;2022-07-29T08:57:36;1.98;;;0.95;;
46777;SDS011;32536;47.128;8.746;2022-07-29T09:00:07;1.80;;;0.98;;
46777;SDS011;32536;47.128;8.746;2022-07-29T09:02:39;1.45;;;0.85;;
46777;SDS011;32536;47.128;8.746;2022-07-29T09:05:08;2.22;;;0.68;;
46777;SDS011;32536;47.128;8.746;2022-07-29T09:07:35;1.50;;;0.90;;
46777;SDS011;32536;47.128;8.746;2022-07-29T09:10:03;1.80;;;0.98;;
46777;SDS011;32536;47.128;8.746;2022-07-29T09:12:31;4.38;;;1.40;;
46777;SDS011;32536;47.128;8.746;2022-07-29T09:14:58;3.90;;;2.05;;
46777;SDS011;32536;47.128;8.746;2022-07-29T09:17:46;3.58;;;1.67;;
46777;SDS011;32536;47.128;8.746;2022-07-29T09:20:15;2.40;;;1.17;;
46777;SDS011;32536;47.128;8.746;2022-07-29T09:22:45;3.42;;;1.67;;
46777;SDS011;32536;47.128;8.746;2022-07-29T09:25:36;3.78;;;1.42;;
46777;SDS011;32536;47.128;8.746;2022-07-29T09:28:14;3.25;;;1.40;;
46777;SDS011;32536;47.128;8.746;2022-07-29T09:30:53;2.53;;;1.15;;
46777;SDS011;32536;47.128;8.746;2022-07-29T09:33:23;2.72;;;1.17;;
46777;SDS011;32536;47.128;8.746;2022-07-29T09:36:02;2.20;;;0.90;;
46777;SDS011;32536;47.128;8.746;2022-07-29T09:38:34;2.15;;;0.85;;
46777;SDS011;32536;47.128;8.746;2022-07-29T09:41:03;1.88;;;0.82;;
46777;SDS011;32536;47.128;8.746;2022-07-29T09:43:33;3.22;;;1.08;;
46777;SDS011;32536;47.128;8.746;2022-07-29T09:46:13;1.67;;;0.80;;
46777;SDS011;32536;47.128;8.746;2022-07-29T09:48:40;2.13;;;0.85;;
46777;SDS011;32536;47.128;8.746;2022-07-29T09:51:16;2.17;;;1.05;;
46777;SDS011;32536;47.128;8.746;2022-07-29T09:53:44;1.98;;;0.80;;
46777;SDS011;32536;47.128;8.746;2022-07-29T09:56:11;2.45;;;0.77;;
46777;SDS011;32536;47.128;8.746;2022-07-29T09:58:39;2.03;;;1.15;;
46777;SDS011;32536;47.128;8.746;2022-07-29T10:01:06;1.27;;;0.82;;
46777;SDS011;32536;47.128;8.746;2022-07-29T10:03:36;1.35;;;0.40;;
46777;SDS011;32536;47.128;8.746;2022-07-29T10:06:17;1.20;;;0.65;;
46777;SDS011;32536;47.128;8.746;2022-07-29T10:08:44;1.48;;;0.90;;
46777;SDS011;32536;47.128;8.746;2022-07-29T10:11:21;1.27;;;0.68;;
46777;SDS011;32536;47.128;8.746;2022-07-29T10:13:48;1.67;;;1.10;;
46777;SDS011;32536;47.128;8.746;2022-07-29T10:16:15;1.67;;;0.85;;
46777;SDS011;32536;47.128;8.746;2022-07-29T10:18:43;1.17;;;0.40;;
46777;SDS011;32536;47.128;8.746;2022-07-29T10:21:12;2.13;;;0.75;;
46777;SDS011;32536;47.128;8.746;2022-07-29T10:23:39;2.13;;;0.65;;
46777;SDS011;32536;47.128;8.746;2022-07-29T10:26:07;1.58;;;0.70;;
46777;SDS011;32536;47.128;8.746;2022-07-29T10:28:34;1.88;;;1.08;;
46777;SDS011;32536;47.128;8.746;2022-07-29T10:31:08;1.45;;;0.50;;
46777;SDS011;32536;47.128;8.746;2022-07-29T10:34:07;1.58;;;0.63;;
46777;SDS011;32536;47.128;8.746;2022-07-29T10:40:03;1.52;;;0.80;;
46777;SDS011;32536;47.128;8.746;2022-07-29T10:43:22;1.42;;;0.40;;
46777;SDS011;32536;47.128;8.746;2022-07-29T10:45:56;1.88;;;0.88;;
46777;SDS011;32536;47.128;8.746;2022-07-29T10:48:25;2.55;;;0.77;;
46777;SDS011;32536;47.128;8.746;2022-07-29T10:50:59;1.60;;;0.80;;
46777;SDS011;32536;47.128;8.746;2022-07-29T10:56:28;1.98;;;0.80;;
46777;SDS011;32536;47.128;8.746;2022-07-29T11:01:49;2.78;;;0.80;;
46777;SDS011;32536;47.128;8.746;2022-07-29T11:05:04;1.80;;;0.70;;
46777;SDS011;32536;47.128;8.746;2022-07-29T11:07:09;1.90;;;1.05;;
46777;SDS011;32536;47.128;8.746;2022-07-29T11:09:38;2.25;;;0.68;;
46777;SDS011;32536;47.128;8.746;2022-07-29T11:15:04;1.83;;;0.68;;
46777;SDS011;32536;47.128;8.746;2022-07-29T11:29:01;1.38;;;0.55;;
46777;SDS011;32536;47.128;8.746;2022-07-29T11:44:58;2.63;;;1.05;;
46777;SDS011;32536;47.128;8.746;2022-07-29T11:47:37;2.22;;;1.15;;
46777;SDS011;32536;47.128;8.746;2022-07-29T11:50:10;2.90;;;1.75;;
46777;SDS011;32536;47.128;8.746;2022-07-29T11:52:42;2.72;;;1.00;;
46777;SDS011;32536;47.128;8.746;2022-07-29T11:55:14;2.10;;;0.60;;
46777;SDS011;32536;47.128;8.746;2022-07-29T12:00:25;2.08;;;0.90;;
46777;SDS011;32536;47.128;8.746;2022-07-29T12:03:07;1.63;;;0.90;;
46777;SDS011;32536;47.128;8.746;2022-07-29T12:05:40;2.50;;;1.00;;
46777;SDS011;32536;47.128;8.746;2022-07-29T12:10:45;1.80;;;0.77;;
46777;SDS011;32536;47.128;8.746;2022-07-29T12:13:14;2.30;;;0.93;;
46777;SDS011;32536;47.128;8.746;2022-07-29T12:15:57;2.10;;;0.82;;
46777;SDS011;32536;47.128;8.746;2022-07-29T12:18:25;1.90;;;0.88;;
46777;SDS011;32536;47.128;8.746;2022-07-29T12:20:56;2.05;;;0.75;;
46777;SDS011;32536;47.128;8.746;2022-07-29T12:23:31;3.00;;;0.98;;
46777;SDS011;32536;47.128;8.746;2022-07-29T12:25:58;4.55;;;2.28;;
46777;SDS011;32536;47.128;8.746;2022-07-29T12:28:25;6.03;;;2.80;;
46777;SDS011;32536;47.128;8.746;2022-07-29T12:30:52;6.70;;;2.80;;
46777;SDS011;32536;47.128;8.746;2022-07-29T12:33:26;4.60;;;2.75;;
46777;SDS011;32536;47.128;8.746;2022-07-29T12:35:58;4.35;;;2.10;;
46777;SDS011;32536;47.128;8.746;2022-07-29T12:38:28;6.35;;;2.88;;
46777;SDS011;32536;47.128;8.746;2022-07-29T12:40:55;4.22;;;2.28;;
46777;SDS011;32536;47.128;8.746;2022-07-29T12:43:23;4.80;;;2.47;;
46777;SDS011;32536;47.128;8.746;2022-07-29T12:45:52;5.50;;;2.47;;
46777;SDS011;32536;47.128;8.746;2022-07-29T12:48:41;4.10;;;2.17;;
46777;SDS011;32536;47.128;8.746;2022-07-29T12:51:10;4.57;;;2.42;;
46777;SDS011;32536;47.128;8.746;2022-07-29T12:53:39;5.93;;;2.20;;
46777;SDS011;32536;47.128;8.746;2022-07-29T12:56:06;3.20;;;1.65;;
46777;SDS011;32536;47.128;8.746;2022-07-29T12:58:42;3.70;;;1.50;;
46777;SDS011;32536;47.128;8.746;2022-07-29T13:11:42;3.50;;;1.98;;
46777;SDS011;32536;47.128;8.746;2022-07-29T13:17:06;6.05;;;2.53;;
46777;SDS011;32536;47.128;8.746;2022-07-29T13:22:30;3.00;;;1.50;;
46777;SDS011;32536;47.128;8.746;2022-07-29T13:24:58;4.28;;;2.00;;
46777;SDS011;32536;47.128;8.746;2022-07-29T13:27:28;5.60;;;2.10;;
46777;SDS011;32536;47.128;8.746;2022-07-29T13:29:58;3.80;;;1.83;;
46777;SDS011;32536;47.128;8.746;2022-07-29T13:32:27;4.13;;;1.98;;
46777;SDS011;32536;47.128;8.746;2022-07-29T13:34:56;2.78;;;1.40;;
46777;SDS011;32536;47.128;8.746;2022-07-29T13:37:27;5.10;;;1.92;;
46777;SDS011;32536;47.128;8.746;2022-07-29T13:39:55;4.65;;;2.13;;
46777;SDS011;32536;47.128;8.746;2022-07-29T13:42:23;4.22;;;2.05;;
46777;SDS011;32536;47.128;8.746;2022-07-29T13:44:50;5.07;;;2.38;;
46777;SDS011;32536;47.128;8.746;2022-07-29T13:47:20;3.50;;;1.75;;
46777;SDS011;32536;47.128;8.746;2022-07-29T13:49:48;3.35;;;1.40;;
46777;SDS011;32536;47.128;8.746;2022-07-29T13:52:15;3.97;;;2.22;;
46777;SDS011;32536;47.128;8.746;2022-07-29T13:54:43;4.22;;;2.03;;
46777;SDS011;32536;47.128;8.746;2022-07-29T13:57:10;3.70;;;2.03;;
46777;SDS011;32536;47.128;8.746;2022-07-29T13:59:38;6.15;;;1.95;;
46777;SDS011;32536;47.128;8.746;2022-07-29T14:02:07;3.83;;;1.98;;
46777;SDS011;32536;47.128;8.746;2022-07-29T14:04:36;2.72;;;1.20;;
46777;SDS011;32536;47.128;8.746;2022-07-29T14:07:03;2.63;;;1.00;;
46777;SDS011;32536;47.128;8.746;2022-07-29T14:09:30;1.63;;;0.80;;
46777;SDS011;32536;47.128;8.746;2022-07-29T14:11:57;1.63;;;0.88;;
46777;SDS011;32536;47.128;8.746;2022-07-29T14:14:23;3.10;;;0.90;;
46777;SDS011;32536;47.128;8.746;2022-07-29T14:16:50;2.55;;;1.00;;
46777;SDS011;32536;47.128;8.746;2022-07-29T14:19:17;2.50;;;0.90;;
46777;SDS011;32536;47.128;8.746;2022-07-29T14:21:44;2.25;;;0.98;;
46777;SDS011;32536;47.128;8.746;2022-07-29T14:24:11;2.08;;;0.77;;
46777;SDS011;32536;47.128;8.746;2022-07-29T14:26:38;2.20;;;0.95;;
46777;SDS011;32536;47.128;8.746;2022-07-29T14:29:04;2.17;;;0.75;;
46777;SDS011;32536;47.128;8.746;2022-07-29T14:31:31;3.17;;;1.52;;
46777;SDS011;32536;47.128;8.746;2022-07-29T14:33:58;3.10;;;1.30;;
46777;SDS011;32536;47.128;8.746;2022-07-29T14:36:25;4.05;;;2.05;;
46777;SDS011;32536;47.128;8.746;2022-07-29T14:38:53;3.45;;;1.52;;
46777;SDS011;32536;47.128;8.746;2022-07-29T14:41:19;2.17;;;1.20;;
46777;SDS011;32536;47.128;8.746;2022-07-29T14:43:47;2.70;;;1.30;;
46777;SDS011;32536;47.128;8.746;2022-07-29T14:46:13;3.33;;;1.42;;
46777;SDS011;32536;47.128;8.746;2022-07-29T14:48:40;3.78;;;1.67;;
46777;SDS011;32536;47.128;8.746;2022-07-29T14:51:07;4.03;;;2.30;;
46777;SDS011;32536;47.128;8.746;2022-07-29T14:53:34;3.88;;;1.95;;
46777;SDS011;32536;47.128;8.746;2022-07-29T14:56:01;3.65;;;1.77;;
46777;SDS011;32536;47.128;8.746;2022-07-29T14:58:28;3.72;;;1.58;;
46777;SDS011;32536;47.128;8.746;2022-07-29T15:00:54;4.85;;;1.48;;
46777;SDS011;32536;47.128;8.746;2022-07-29T15:03:21;3.63;;;1.95;;
46777;SDS011;32536;47.128;8.746;2022-07-29T15:05:49;3.53;;;1.67;;
46777;SDS011;32536;47.128;8.746;2022-07-29T15:08:15;3.45;;;1.70;;
46777;SDS011;32536;47.128;8.746;2022-07-29T15:10:42;2.83;;;1.35;;
46777;SDS011;32536;47.128;8.746;2022-07-29T15:13:09;3.90;;;2.08;;
46777;SDS011;32536;47.128;8.746;2022-07-29T15:15:36;3.83;;;1.80;;
46777;SDS011;32536;47.128;8.746;2022-07-29T15:18:03;4.18;;;2.08;;
46777;SDS011;32536;47.128;8.746;2022-07-29T15:20:30;3.92;;;1.67;;
46777;SDS011;32536;47.128;8.746;2022-07-29T15:22:57;4.03;;;1.83;;
46777;SDS011;32536;47.128;8.746;2022-07-29T15:25:24;3.50;;;1.30;;
46777;SDS011;32536;47.128;8.746;2022-07-29T15:27:51;4.60;;;2.15;;
46777;SDS011;32536;47.128;8.746;2022-07-29T15:30:18;2.50;;;0.98;;
46777;SDS011;32536;47.128;8.746;2022-07-29T15:32:45;2.60;;;1.23;;
46777;SDS011;32536;47.128;8.746;2022-07-29T15:35:12;1.85;;;0.70;;
46777;SDS011;32536;47.128;8.746;2022-07-29T15:37:39;2.25;;;0.90;;
46777;SDS011;32536;47.128;8.746;2022-07-29T15:40:06;2.08;;;1.20;;
46777;SDS011;32536;47.128;8.746;2022-07-29T15:42:34;1.95;;;0.98;;
46777;SDS011;32536;47.128;8.746;2022-07-29T15:45:03;2.28;;;0.93;;
46777;SDS011;32536;47.128;8.746;2022-07-29T15:47:31;1.88;;;0.88;;
46777;SDS011;32536;47.128;8.746;2022-07-29T15:49:57;1.63;;;0.95;;
46777;SDS011;32536;47.128;8.746;2022-07-29T15:52:24;1.50;;;0.70;;
46777;SDS011;32536;47.128;8.746;2022-07-29T15:54:52;1.95;;;1.10;;
46777;SDS011;32536;47.128;8.746;2022-07-29T15:57:54;1.70;;;0.75;;
46777;SDS011;32536;47.128;8.746;2022-07-29T16:00:20;1.90;;;1.08;;
46777;SDS011;32536;47.128;8.746;2022-07-29T16:02:49;2.25;;;0.98;;
46777;SDS011;32536;47.128;8.746;2022-07-29T16:05:16;3.03;;;1.50;;
46777;SDS011;32536;47.128;8.746;2022-07-29T16:07:42;2.05;;;0.90;;
46777;SDS011;32536;47.128;8.746;2022-07-29T16:10:09;2.08;;;0.98;;
46777;SDS011;32536;47.128;8.746;2022-07-29T16:12:36;2.63;;;1.15;;
46777;SDS011;32536;47.128;8.746;2022-07-29T16:15:03;3.08;;;1.27;;
46777;SDS011;32536;47.128;8.746;2022-07-29T16:17:31;3.00;;;1.42;;
46777;SDS011;32536;47.128;8.746;2022-07-29T16:19:58;3.33;;;1.23;;
46777;SDS011;32536;47.128;8.746;2022-07-29T16:22:25;3.28;;;1.35;;